sensor_id;sensor_type;location;lat;lon;timestamp;P1;durP1;ratioP1;P2;durP2;ratioP2
69954;SDS011;57279;55.912;37.490;2023-11-22T00:00:37;7.20;;;2.58;;
69954;SDS011;57279;55.912;37.490;2023-11-22T00:03:03;7.80;;;2.60;;
69954;SDS011;57279;55.912;37.490;2023-11-22T00:05:29;7.78;;;2.63;;
69954;SDS011;57279;55.912;37.490;2023-11-22T00:07:54;12.00;;;3.40;;
69954;SDS011;57279;55.912;37.490;2023-11-22T00:10:20;8.93;;;1.95;;
69954;SDS011;57279;55.912;37.490;2023-11-22T00:12:46;11.43;;;3.10;;
69954;SDS011;57279;55.912;37.490;2023-11-22T00:15:12;8.45;;;2.78;;
69954;SDS011;57279;55.912;37.490;2023-11-22T00:17:38;9.68;;;3.25;;
69954;SDS011;57279;55.912;37.490;2023-11-22T00:20:04;7.68;;;2.28;;
69954;SDS011;57279;55.912;37.490;2023-11-22T00:22:33;10.60;;;3.85;;
69954;SDS011;57279;55.912;37.490;2023-11-22T00:24:59;10.20;;;2.70;;
69954;SDS011;57279;55.912;37.490;2023-11-22T00:27:27;9.75;;;2.58;;
69954;SDS011;57279;55.912;37.490;2023-11-22T00:29:55;6.68;;;2.30;;
69954;SDS011;57279;55.912;37.490;2023-11-22T00:32:21;9.23;;;3.10;;
69954;SDS011;57279;55.912;37.490;2023-11-22T00:34:46;10.93;;;3.50;;
69954;SDS011;57279;55.912;37.490;2023-11-22T00:37:13;7.40;;;2.63;;
69954;SDS011;57279;55.912;37.490;2023-11-22T00:39:39;8.25;;;2.78;;
69954;SDS011;57279;55.912;37.490;2023-11-22T00:42:05;9.63;;;3.17;;
69954;SDS011;57279;55.912;37.490;2023-11-22T00:44:31;11.18;;;3.75;;
69954;SDS011;57279;55.912;37.490;2023-11-22T00:46:57;10.55;;;3.55;;
69954;SDS011;57279;55.912;37.490;2023-11-22T00:49:23;7.90;;;2.53;;
69954;SDS011;57279;55.912;37.490;2023-11-22T00:51:49;9.63;;;3.75;;
69954;SDS011;57279;55.912;37.490;2023-11-22T00:54:16;10.70;;;3.20;;
69954;SDS011;57279;55.912;37.490;2023-11-22T00:56:42;12.95;;;4.00;;
69954;SDS011;57279;55.912;37.490;2023-11-22T00:59:08;11.30;;;3.33;;
69954;SDS011;57279;55.912;37.490;2023-11-22T01:01:34;10.88;;;3.40;;
69954;SDS011;57279;55.912;37.490;2023-11-22T01:03:59;10.25;;;2.50;;
69954;SDS011;57279;55.912;37.490;2023-11-22T01:06:25;12.73;;;3.50;;
69954;SDS011;57279;55.912;37.490;2023-11-22T01:08:51;10.35;;;3.17;;
69954;SDS011;57279;55.912;37.490;2023-11-22T01:11:17;9.52;;;3.17;;
69954;SDS011;57279;55.912;37.490;2023-11-22T01:13:43;8.50;;;2.30;;
69954;SDS011;57279;55.912;37.490;2023-11-22T01:16:09;10.23;;;3.42;;
69954;SDS011;57279;55.912;37.490;2023-11-22T01:18:35;8.90;;;2.38;;
69954;SDS011;57279;55.912;37.490;2023-11-22T01:21:02;8.80;;;2.92;;
69954;SDS011;57279;55.912;37.490;2023-11-22T01:23:29;4.35;;;1.20;;
69954;SDS011;57279;55.912;37.490;2023-11-22T01:25:58;7.82;;;2.20;;
69954;SDS011;57279;55.912;37.490;2023-11-22T01:28:25;11.20;;;3.80;;
69954;SDS011;57279;55.912;37.490;2023-11-22T01:30:55;9.60;;;2.55;;
69954;SDS011;57279;55.912;37.490;2023-11-22T01:33:21;8.68;;;2.70;;
69954;SDS011;57279;55.912;37.490;2023-11-22T01:35:47;10.15;;;3.30;;
69954;SDS011;57279;55.912;37.490;2023-11-22T01:38:15;10.07;;;2.70;;
69954;SDS011;57279;55.912;37.490;2023-11-22T01:40:44;10.25;;;3.47;;
69954;SDS011;57279;55.912;37.490;2023-11-22T01:43:16;15.40;;;3.13;;
69954;SDS011;57279;55.912;37.490;2023-11-22T01:45:44;7.53;;;1.90;;
69954;SDS011;57279;55.912;37.490;2023-11-22T01:48:13;9.45;;;2.70;;
69954;SDS011;57279;55.912;37.490;2023-11-22T01:50:39;9.30;;;2.83;;
69954;SDS011;57279;55.912;37.490;2023-11-22T01:53:07;11.68;;;2.80;;
69954;SDS011;57279;55.912;37.490;2023-11-22T01:55:35;10.75;;;3.33;;
69954;SDS011;57279;55.912;37.490;2023-11-22T01:58:01;9.23;;;3.28;;
69954;SDS011;57279;55.912;37.490;2023-11-22T02:00:35;8.35;;;2.65;;
69954;SDS011;57279;55.912;37.490;2023-11-22T02:03:07;10.13;;;2.75;;
69954;SDS011;57279;55.912;37.490;2023-11-22T02:05:33;9.95;;;2.67;;
69954;SDS011;57279;55.912;37.490;2023-11-22T02:07:58;8.90;;;2.28;;
69954;SDS011;57279;55.912;37.490;2023-11-22T02:10:25;10.90;;;2.25;;
69954;SDS011;57279;55.912;37.490;2023-11-22T02:12:51;8.07;;;2.40;;
69954;SDS011;57279;55.912;37.490;2023-11-22T02:15:16;4.97;;;1.42;;
69954;SDS011;57279;55.912;37.490;2023-11-22T02:17:42;9.23;;;2.65;;
69954;SDS011;57279;55.912;37.490;2023-11-22T02:20:10;6.88;;;1.85;;
69954;SDS011;57279;55.912;37.490;2023-11-22T02:22:42;8.45;;;2.15;;
69954;SDS011;57279;55.912;37.490;2023-11-22T02:25:12;9.43;;;2.72;;
69954;SDS011;57279;55.912;37.490;2023-11-22T02:27:38;6.50;;;1.98;;
69954;SDS011;57279;55.912;37.490;2023-11-22T02:30:05;8.02;;;2.47;;
69954;SDS011;57279;55.912;37.490;2023-11-22T02:32:31;10.05;;;2.42;;
69954;SDS011;57279;55.912;37.490;2023-11-22T02:34:59;7.82;;;2.20;;
69954;SDS011;57279;55.912;37.490;2023-11-22T02:37:25;5.53;;;2.10;;
69954;SDS011;57279;55.912;37.490;2023-11-22T02:39:57;9.15;;;2.33;;
69954;SDS011;57279;55.912;37.490;2023-11-22T02:42:27;8.60;;;2.53;;
69954;SDS011;57279;55.912;37.490;2023-11-22T02:44:52;6.38;;;1.95;;
69954;SDS011;57279;55.912;37.490;2023-11-22T02:47:18;9.27;;;2.85;;
69954;SDS011;57279;55.912;37.490;2023-11-22T02:49:44;7.35;;;2.08;;
69954;SDS011;57279;55.912;37.490;2023-11-22T02:52:09;9.48;;;2.55;;
69954;SDS011;57279;55.912;37.490;2023-11-22T02:54:37;11.30;;;3.33;;
69954;SDS011;57279;55.912;37.490;2023-11-22T02:57:03;6.68;;;1.98;;
69954;SDS011;57279;55.912;37.490;2023-11-22T02:59:29;8.18;;;2.47;;
69954;SDS011;57279;55.912;37.490;2023-11-22T03:01:54;11.07;;;2.85;;
69954;SDS011;57279;55.912;37.490;2023-11-22T03:04:21;11.05;;;2.28;;
69954;SDS011;57279;55.912;37.490;2023-11-22T03:06:47;9.35;;;2.97;;
69954;SDS011;57279;55.912;37.490;2023-11-22T03:09:13;4.65;;;1.42;;
69954;SDS011;57279;55.912;37.490;2023-11-22T03:11:40;10.60;;;3.25;;
69954;SDS011;57279;55.912;37.490;2023-11-22T03:14:06;9.05;;;2.75;;
69954;SDS011;57279;55.912;37.490;2023-11-22T03:16:32;10.20;;;3.00;;
69954;SDS011;57279;55.912;37.490;2023-11-22T03:18:58;12.30;;;2.78;;
69954;SDS011;57279;55.912;37.490;2023-11-22T03:21:24;10.02;;;3.20;;
69954;SDS011;57279;55.912;37.490;2023-11-22T03:23:53;9.55;;;3.13;;
69954;SDS011;57279;55.912;37.490;2023-11-22T03:26:20;6.18;;;1.83;;
69954;SDS011;57279;55.912;37.490;2023-11-22T03:28:46;10.98;;;3.13;;
69954;SDS011;57279;55.912;37.490;2023-11-22T03:31:13;9.05;;;3.35;;
69954;SDS011;57279;55.912;37.490;2023-11-22T03:33:40;9.27;;;3.15;;
69954;SDS011;57279;55.912;37.490;2023-11-22T03:36:06;11.18;;;3.20;;
69954;SDS011;57279;55.912;37.490;2023-11-22T03:38:32;11.43;;;3.30;;
69954;SDS011;57279;55.912;37.490;2023-11-22T03:40:57;11.07;;;2.88;;
69954;SDS011;57279;55.912;37.490;2023-11-22T03:43:24;9.30;;;2.85;;
69954;SDS011;57279;55.912;37.490;2023-11-22T03:45:52;11.43;;;2.67;;
69954;SDS011;57279;55.912;37.490;2023-11-22T03:48:18;9.77;;;2.92;;
69954;SDS011;57279;55.912;37.490;2023-11-22T03:50:43;9.02;;;2.85;;
69954;SDS011;57279;55.912;37.490;2023-11-22T03:53:09;11.50;;;3.35;;
69954;SDS011;57279;55.912;37.490;2023-11-22T03:55:35;8.73;;;2.25;;
69954;SDS011;57279;55.912;37.490;2023-11-22T03:58:00;10.60;;;3.65;;
69954;SDS011;57279;55.912;37.490;2023-11-22T04:00:26;10.73;;;3.00;;
69954;SDS011;57279;55.912;37.490;2023-11-22T04:02:52;9.82;;;2.60;;
69954;SDS011;57279;55.912;37.490;2023-11-22T04:07:45;9.20;;;2.45;;
69954;SDS011;57279;55.912;37.490;2023-11-22T04:10:11;7.10;;;2.22;;
69954;SDS011;57279;55.912;37.490;2023-11-22T04:12:37;9.18;;;2.40;;
69954;SDS011;57279;55.912;37.490;2023-11-22T04:15:03;8.30;;;2.20;;
69954;SDS011;57279;55.912;37.490;2023-11-22T04:17:30;6.88;;;1.90;;
69954;SDS011;57279;55.912;37.490;2023-11-22T04:19:55;9.02;;;2.00;;
69954;SDS011;57279;55.912;37.490;2023-11-22T04:22:21;8.57;;;2.53;;
69954;SDS011;57279;55.912;37.490;2023-11-22T04:24:47;8.35;;;2.20;;
69954;SDS011;57279;55.912;37.490;2023-11-22T04:27:12;9.25;;;2.20;;
69954;SDS011;57279;55.912;37.490;2023-11-22T04:29:38;4.85;;;1.08;;
69954;SDS011;57279;55.912;37.490;2023-11-22T04:32:04;8.02;;;2.35;;
69954;SDS011;57279;55.912;37.490;2023-11-22T04:34:30;10.95;;;2.15;;
69954;SDS011;57279;55.912;37.490;2023-11-22T04:36:56;7.90;;;2.10;;
69954;SDS011;57279;55.912;37.490;2023-11-22T04:39:22;9.30;;;2.30;;
69954;SDS011;57279;55.912;37.490;2023-11-22T04:41:47;5.97;;;1.55;;
69954;SDS011;57279;55.912;37.490;2023-11-22T04:44:14;7.50;;;2.22;;
69954;SDS011;57279;55.912;37.490;2023-11-22T04:46:40;9.93;;;2.28;;
69954;SDS011;57279;55.912;37.490;2023-11-22T04:49:06;12.88;;;2.10;;
69954;SDS011;57279;55.912;37.490;2023-11-22T04:51:32;7.38;;;2.03;;
69954;SDS011;57279;55.912;37.490;2023-11-22T04:53:59;7.38;;;1.90;;
69954;SDS011;57279;55.912;37.490;2023-11-22T04:56:24;8.20;;;2.00;;
69954;SDS011;57279;55.912;37.490;2023-11-22T04:58:50;6.85;;;1.75;;
69954;SDS011;57279;55.912;37.490;2023-11-22T05:01:16;7.10;;;1.67;;
69954;SDS011;57279;55.912;37.490;2023-11-22T05:03:41;5.82;;;1.48;;
69954;SDS011;57279;55.912;37.490;2023-11-22T05:06:08;4.55;;;1.15;;
69954;SDS011;57279;55.912;37.490;2023-11-22T05:08:33;5.28;;;1.25;;
69954;SDS011;57279;55.912;37.490;2023-11-22T05:10:59;4.45;;;1.15;;
69954;SDS011;57279;55.912;37.490;2023-11-22T05:13:25;6.60;;;1.50;;
69954;SDS011;57279;55.912;37.490;2023-11-22T05:15:51;5.70;;;1.23;;
69954;SDS011;57279;55.912;37.490;2023-11-22T05:18:16;4.60;;;1.05;;
69954;SDS011;57279;55.912;37.490;2023-11-22T05:20:42;4.68;;;1.20;;
69954;SDS011;57279;55.912;37.490;2023-11-22T05:23:09;6.45;;;1.50;;
69954;SDS011;57279;55.912;37.490;2023-11-22T05:25:35;5.50;;;1.33;;
69954;SDS011;57279;55.912;37.490;2023-11-22T05:28:01;3.67;;;0.90;;
69954;SDS011;57279;55.912;37.490;2023-11-22T05:30:26;5.85;;;2.17;;
69954;SDS011;57279;55.912;37.490;2023-11-22T05:32:52;5.88;;;1.00;;
69954;SDS011;57279;55.912;37.490;2023-11-22T05:35:18;5.38;;;1.35;;
69954;SDS011;57279;55.912;37.490;2023-11-22T05:40:10;4.85;;;1.20;;
69954;SDS011;57279;55.912;37.490;2023-11-22T05:42:36;3.95;;;0.98;;
69954;SDS011;57279;55.912;37.490;2023-11-22T05:45:02;4.15;;;1.00;;
69954;SDS011;57279;55.912;37.490;2023-11-22T05:47:30;4.20;;;0.90;;
69954;SDS011;57279;55.912;37.490;2023-11-22T05:49:56;5.95;;;1.88;;
69954;SDS011;57279;55.912;37.490;2023-11-22T05:52:22;4.53;;;1.00;;
69954;SDS011;57279;55.912;37.490;2023-11-22T05:54:49;3.67;;;0.90;;
69954;SDS011;57279;55.912;37.490;2023-11-22T05:57:14;3.22;;;0.88;;
69954;SDS011;57279;55.912;37.490;2023-11-22T05:59:40;5.43;;;1.15;;
69954;SDS011;57279;55.912;37.490;2023-11-22T06:02:06;3.33;;;0.75;;
69954;SDS011;57279;55.912;37.490;2023-11-22T06:04:32;4.28;;;0.90;;
69954;SDS011;57279;55.912;37.490;2023-11-22T06:06:57;4.25;;;1.02;;
69954;SDS011;57279;55.912;37.490;2023-11-22T06:09:23;3.78;;;0.85;;
69954;SDS011;57279;55.912;37.490;2023-11-22T06:11:49;5.15;;;1.10;;
69954;SDS011;57279;55.912;37.490;2023-11-22T06:14:14;4.47;;;1.23;;
69954;SDS011;57279;55.912;37.490;2023-11-22T06:16:40;5.18;;;1.30;;
69954;SDS011;57279;55.912;37.490;2023-11-22T06:19:06;4.20;;;1.10;;
69954;SDS011;57279;55.912;37.490;2023-11-22T06:21:32;6.00;;;1.30;;
69954;SDS011;57279;55.912;37.490;2023-11-22T06:23:59;3.70;;;1.00;;
69954;SDS011;57279;55.912;37.490;2023-11-22T06:26:25;6.53;;;1.27;;
69954;SDS011;57279;55.912;37.490;2023-11-22T06:28:51;4.43;;;1.10;;
69954;SDS011;57279;55.912;37.490;2023-11-22T06:31:16;4.90;;;1.30;;
69954;SDS011;57279;55.912;37.490;2023-11-22T06:33:42;4.82;;;0.90;;
69954;SDS011;57279;55.912;37.490;2023-11-22T06:36:08;11.48;;;1.40;;
69954;SDS011;57279;55.912;37.490;2023-11-22T06:38:36;6.30;;;1.83;;
69954;SDS011;57279;55.912;37.490;2023-11-22T06:41:02;5.75;;;1.48;;
69954;SDS011;57279;55.912;37.490;2023-11-22T06:43:28;5.78;;;1.23;;
69954;SDS011;57279;55.912;37.490;2023-11-22T06:45:53;5.85;;;1.33;;
69954;SDS011;57279;55.912;37.490;2023-11-22T06:48:19;4.78;;;1.13;;
69954;SDS011;57279;55.912;37.490;2023-11-22T06:50:45;4.15;;;1.20;;
69954;SDS011;57279;55.912;37.490;2023-11-22T06:53:10;5.75;;;1.15;;
69954;SDS011;57279;55.912;37.490;2023-11-22T06:55:37;5.25;;;1.20;;
69954;SDS011;57279;55.912;37.490;2023-11-22T07:00:30;4.55;;;1.45;;
69954;SDS011;57279;55.912;37.490;2023-11-22T07:02:56;6.00;;;2.10;;
69954;SDS011;57279;55.912;37.490;2023-11-22T07:05:21;2.95;;;0.75;;
69954;SDS011;57279;55.912;37.490;2023-11-22T07:07:47;5.05;;;1.17;;
69954;SDS011;57279;55.912;37.490;2023-11-22T07:10:15;6.07;;;1.65;;
69954;SDS011;57279;55.912;37.490;2023-11-22T07:12:40;6.47;;;1.70;;
69954;SDS011;57279;55.912;37.490;2023-11-22T07:15:08;9.50;;;2.20;;
69954;SDS011;57279;55.912;37.490;2023-11-22T07:17:35;7.22;;;1.65;;
69954;SDS011;57279;55.912;37.490;2023-11-22T07:22:29;5.45;;;1.30;;
69954;SDS011;57279;55.912;37.490;2023-11-22T07:24:55;4.45;;;1.00;;
69954;SDS011;57279;55.912;37.490;2023-11-22T07:27:25;5.75;;;1.02;;
69954;SDS011;57279;55.912;37.490;2023-11-22T07:29:51;8.65;;;1.30;;
69954;SDS011;57279;55.912;37.490;2023-11-22T07:32:17;4.07;;;0.82;;
69954;SDS011;57279;55.912;37.490;2023-11-22T07:34:45;7.32;;;2.08;;
69954;SDS011;57279;55.912;37.490;2023-11-22T07:37:11;6.07;;;1.40;;
69954;SDS011;57279;55.912;37.490;2023-11-22T07:39:38;5.60;;;1.23;;
69954;SDS011;57279;55.912;37.490;2023-11-22T07:42:05;5.15;;;1.73;;
69954;SDS011;57279;55.912;37.490;2023-11-22T07:44:34;5.57;;;1.83;;
69954;SDS011;57279;55.912;37.490;2023-11-22T07:47:01;4.60;;;1.20;;
69954;SDS011;57279;55.912;37.490;2023-11-22T07:49:27;4.45;;;1.10;;
69954;SDS011;57279;55.912;37.490;2023-11-22T07:54:21;5.88;;;1.30;;
69954;SDS011;57279;55.912;37.490;2023-11-22T07:56:50;3.75;;;0.88;;
69954;SDS011;57279;55.912;37.490;2023-11-22T07:59:18;4.82;;;1.67;;
69954;SDS011;57279;55.912;37.490;2023-11-22T08:04:10;3.35;;;0.88;;
69954;SDS011;57279;55.912;37.490;2023-11-22T08:06:36;4.78;;;1.10;;
69954;SDS011;57279;55.912;37.490;2023-11-22T08:09:02;4.50;;;1.15;;
69954;SDS011;57279;55.912;37.490;2023-11-22T08:11:29;5.13;;;1.20;;
69954;SDS011;57279;55.912;37.490;2023-11-22T08:13:59;9.38;;;1.48;;
69954;SDS011;57279;55.912;37.490;2023-11-22T08:16:25;6.65;;;1.52;;
69954;SDS011;57279;55.912;37.490;2023-11-22T08:21:17;4.50;;;1.15;;
69954;SDS011;57279;55.912;37.490;2023-11-22T08:23:45;6.00;;;1.45;;
69954;SDS011;57279;55.912;37.490;2023-11-22T08:26:13;6.93;;;1.67;;
69954;SDS011;57279;55.912;37.490;2023-11-22T08:28:40;5.72;;;1.63;;
69954;SDS011;57279;55.912;37.490;2023-11-22T08:31:06;6.20;;;1.65;;
69954;SDS011;57279;55.912;37.490;2023-11-22T08:33:35;2.75;;;0.60;;
69954;SDS011;57279;55.912;37.490;2023-11-22T08:36:01;6.65;;;1.70;;
69954;SDS011;57279;55.912;37.490;2023-11-22T08:38:30;5.78;;;1.30;;
69954;SDS011;57279;55.912;37.490;2023-11-22T08:41:00;4.70;;;1.30;;
69954;SDS011;57279;55.912;37.490;2023-11-22T08:43:28;5.93;;;1.33;;
69954;SDS011;57279;55.912;37.490;2023-11-22T08:45:53;4.28;;;1.10;;
69954;SDS011;57279;55.912;37.490;2023-11-22T08:48:19;4.22;;;0.88;;
69954;SDS011;57279;55.912;37.490;2023-11-22T08:50:45;5.65;;;1.27;;
69954;SDS011;57279;55.912;37.490;2023-11-22T08:53:12;4.90;;;1.10;;
69954;SDS011;57279;55.912;37.490;2023-11-22T08:55:38;4.38;;;1.10;;
69954;SDS011;57279;55.912;37.490;2023-11-22T08:58:04;3.40;;;0.88;;
69954;SDS011;57279;55.912;37.490;2023-11-22T09:00:30;4.63;;;1.27;;
69954;SDS011;57279;55.912;37.490;2023-11-22T09:02:57;5.68;;;1.08;;
69954;SDS011;57279;55.912;37.490;2023-11-22T09:05:23;4.95;;;1.15;;
69954;SDS011;57279;55.912;37.490;2023-11-22T09:07:50;4.90;;;1.02;;
69954;SDS011;57279;55.912;37.490;2023-11-22T09:10:16;4.45;;;1.20;;
69954;SDS011;57279;55.912;37.490;2023-11-22T09:12:44;7.10;;;1.73;;
69954;SDS011;57279;55.912;37.490;2023-11-22T09:15:13;6.20;;;2.20;;
69954;SDS011;57279;55.912;37.490;2023-11-22T09:17:42;6.55;;;1.48;;
69954;SDS011;57279;55.912;37.490;2023-11-22T09:20:12;5.95;;;1.33;;
69954;SDS011;57279;55.912;37.490;2023-11-22T09:22:41;4.78;;;1.48;;
69954;SDS011;57279;55.912;37.490;2023-11-22T09:25:14;7.88;;;1.70;;
69954;SDS011;57279;55.912;37.490;2023-11-22T09:27:46;5.65;;;1.30;;
69954;SDS011;57279;55.912;37.490;2023-11-22T09:30:19;7.05;;;1.70;;
69954;SDS011;57279;55.912;37.490;2023-11-22T09:33:01;3.25;;;0.98;;
69954;SDS011;57279;55.912;37.490;2023-11-22T09:35:27;6.45;;;1.50;;
69954;SDS011;57279;55.912;37.490;2023-11-22T09:37:59;4.72;;;1.02;;
69954;SDS011;57279;55.912;37.490;2023-11-22T09:40:29;5.43;;;1.50;;
69954;SDS011;57279;55.912;37.490;2023-11-22T09:42:59;8.90;;;1.45;;
69954;SDS011;57279;55.912;37.490;2023-11-22T09:45:27;4.30;;;1.13;;
69954;SDS011;57279;55.912;37.490;2023-11-22T09:47:55;4.97;;;1.55;;
69954;SDS011;57279;55.912;37.490;2023-11-22T09:53:36;9.75;;;1.38;;
69954;SDS011;57279;55.912;37.490;2023-11-22T09:56:25;5.07;;;1.45;;
69954;SDS011;57279;55.912;37.490;2023-11-22T09:58:55;6.05;;;1.60;;
69954;SDS011;57279;55.912;37.490;2023-11-22T10:01:23;5.75;;;1.48;;
69954;SDS011;57279;55.912;37.490;2023-11-22T10:03:49;6.25;;;1.58;;
69954;SDS011;57279;55.912;37.490;2023-11-22T10:06:16;6.47;;;1.25;;
69954;SDS011;57279;55.912;37.490;2023-11-22T10:08:43;7.22;;;1.55;;
69954;SDS011;57279;55.912;37.490;2023-11-22T10:11:15;5.70;;;1.75;;
69954;SDS011;57279;55.912;37.490;2023-11-22T10:13:48;4.25;;;1.05;;
69954;SDS011;57279;55.912;37.490;2023-11-22T10:16:16;8.15;;;2.05;;
69954;SDS011;57279;55.912;37.490;2023-11-22T10:18:44;7.50;;;1.80;;
69954;SDS011;57279;55.912;37.490;2023-11-22T10:21:23;7.22;;;1.58;;
69954;SDS011;57279;55.912;37.490;2023-11-22T10:23:52;11.27;;;1.73;;
69954;SDS011;57279;55.912;37.490;2023-11-22T10:26:21;6.97;;;2.28;;
69954;SDS011;57279;55.912;37.490;2023-11-22T10:28:51;6.25;;;1.30;;
69954;SDS011;57279;55.912;37.490;2023-11-22T10:31:18;6.55;;;1.63;;
69954;SDS011;57279;55.912;37.490;2023-11-22T10:33:47;5.35;;;1.10;;
69954;SDS011;57279;55.912;37.490;2023-11-22T10:36:16;6.22;;;1.38;;
69954;SDS011;57279;55.912;37.490;2023-11-22T10:38:46;5.28;;;1.75;;
69954;SDS011;57279;55.912;37.490;2023-11-22T10:41:13;6.65;;;2.60;;
69954;SDS011;57279;55.912;37.490;2023-11-22T10:46:07;5.13;;;1.33;;
69954;SDS011;57279;55.912;37.490;2023-11-22T10:48:36;5.45;;;1.35;;
69954;SDS011;57279;55.912;37.490;2023-11-22T10:51:03;4.53;;;1.17;;
69954;SDS011;57279;55.912;37.490;2023-11-22T10:53:31;3.90;;;0.80;;
69954;SDS011;57279;55.912;37.490;2023-11-22T10:56:07;5.25;;;1.02;;
69954;SDS011;57279;55.912;37.490;2023-11-22T10:58:49;4.60;;;1.10;;
69954;SDS011;57279;55.912;37.490;2023-11-22T11:01:16;6.68;;;1.48;;
69954;SDS011;57279;55.912;37.490;2023-11-22T11:03:44;6.40;;;1.65;;
69954;SDS011;57279;55.912;37.490;2023-11-22T11:06:19;5.28;;;1.58;;
69954;SDS011;57279;55.912;37.490;2023-11-22T11:08:53;6.93;;;1.27;;
69954;SDS011;57279;55.912;37.490;2023-11-22T11:11:22;5.78;;;1.15;;
69954;SDS011;57279;55.912;37.490;2023-11-22T11:16:15;4.70;;;1.65;;
69954;SDS011;57279;55.912;37.490;2023-11-22T11:21:07;6.75;;;1.73;;
69954;SDS011;57279;55.912;37.490;2023-11-22T11:23:38;5.28;;;1.10;;
69954;SDS011;57279;55.912;37.490;2023-11-22T11:26:16;6.32;;;1.30;;
69954;SDS011;57279;55.912;37.490;2023-11-22T11:28:45;6.50;;;1.40;;
69954;SDS011;57279;55.912;37.490;2023-11-22T11:31:12;4.72;;;1.08;;
69954;SDS011;57279;55.912;37.490;2023-11-22T11:34:02;6.50;;;1.30;;
69954;SDS011;57279;55.912;37.490;2023-11-22T11:36:30;4.55;;;1.10;;
69954;SDS011;57279;55.912;37.490;2023-11-22T11:39:15;7.68;;;1.70;;
69954;SDS011;57279;55.912;37.490;2023-11-22T11:41:42;5.25;;;1.13;;
69954;SDS011;57279;55.912;37.490;2023-11-22T11:44:08;5.32;;;1.38;;
69954;SDS011;57279;55.912;37.490;2023-11-22T11:46:37;4.85;;;0.95;;
69954;SDS011;57279;55.912;37.490;2023-11-22T11:49:08;5.20;;;1.17;;
69954;SDS011;57279;55.912;37.490;2023-11-22T11:51:37;3.55;;;1.00;;
69954;SDS011;57279;55.912;37.490;2023-11-22T11:54:03;4.97;;;1.23;;
69954;SDS011;57279;55.912;37.490;2023-11-22T11:56:29;5.00;;;1.00;;
69954;SDS011;57279;55.912;37.490;2023-11-22T11:58:57;5.63;;;1.20;;
69954;SDS011;57279;55.912;37.490;2023-11-22T12:01:27;4.55;;;1.13;;
69954;SDS011;57279;55.912;37.490;2023-11-22T12:03:54;5.93;;;1.48;;
69954;SDS011;57279;55.912;37.490;2023-11-22T12:06:21;5.47;;;1.20;;
69954;SDS011;57279;55.912;37.490;2023-11-22T12:08:46;7.00;;;1.73;;
69954;SDS011;57279;55.912;37.490;2023-11-22T12:11:13;3.95;;;1.02;;
69954;SDS011;57279;55.912;37.490;2023-11-22T12:13:39;6.43;;;1.70;;
69954;SDS011;57279;55.912;37.490;2023-11-22T12:16:08;5.68;;;1.25;;
69954;SDS011;57279;55.912;37.490;2023-11-22T12:18:46;5.82;;;1.45;;
69954;SDS011;57279;55.912;37.490;2023-11-22T12:21:13;6.05;;;1.50;;
69954;SDS011;57279;55.912;37.490;2023-11-22T12:23:41;4.32;;;1.00;;
69954;SDS011;57279;55.912;37.490;2023-11-22T12:26:14;5.35;;;1.20;;
69954;SDS011;57279;55.912;37.490;2023-11-22T12:28:44;4.50;;;1.27;;
69954;SDS011;57279;55.912;37.490;2023-11-22T12:31:13;2.78;;;0.77;;
69954;SDS011;57279;55.912;37.490;2023-11-22T12:33:40;4.13;;;0.90;;
69954;SDS011;57279;55.912;37.490;2023-11-22T12:36:07;4.03;;;1.05;;
69954;SDS011;57279;55.912;37.490;2023-11-22T12:38:41;7.00;;;1.20;;
69954;SDS011;57279;55.912;37.490;2023-11-22T12:41:07;6.35;;;1.52;;
69954;SDS011;57279;55.912;37.490;2023-11-22T12:43:33;4.57;;;0.63;;
69954;SDS011;57279;55.912;37.490;2023-11-22T12:46:00;6.15;;;1.50;;
69954;SDS011;57279;55.912;37.490;2023-11-22T12:48:38;3.75;;;0.98;;
69954;SDS011;57279;55.912;37.490;2023-11-22T12:51:14;6.57;;;1.80;;
69954;SDS011;57279;55.912;37.490;2023-11-22T12:53:47;5.60;;;1.35;;
69954;SDS011;57279;55.912;37.490;2023-11-22T12:56:14;5.63;;;1.63;;
69954;SDS011;57279;55.912;37.490;2023-11-22T12:58:40;6.97;;;2.05;;
69954;SDS011;57279;55.912;37.490;2023-11-22T13:01:06;6.07;;;1.50;;
69954;SDS011;57279;55.912;37.490;2023-11-22T13:03:31;7.15;;;1.85;;
69954;SDS011;57279;55.912;37.490;2023-11-22T13:05:57;6.88;;;1.60;;
69954;SDS011;57279;55.912;37.490;2023-11-22T13:08:23;4.57;;;0.98;;
69954;SDS011;57279;55.912;37.490;2023-11-22T13:10:54;4.70;;;1.35;;
69954;SDS011;57279;55.912;37.490;2023-11-22T13:13:20;7.40;;;2.22;;
69954;SDS011;57279;55.912;37.490;2023-11-22T13:15:47;4.10;;;0.88;;
69954;SDS011;57279;55.912;37.490;2023-11-22T13:18:13;3.88;;;1.05;;
69954;SDS011;57279;55.912;37.490;2023-11-22T13:20:38;7.05;;;1.40;;
69954;SDS011;57279;55.912;37.490;2023-11-22T13:23:06;7.85;;;1.58;;
69954;SDS011;57279;55.912;37.490;2023-11-22T13:25:32;9.35;;;2.55;;
69954;SDS011;57279;55.912;37.490;2023-11-22T13:27:59;7.22;;;1.98;;
69954;SDS011;57279;55.912;37.490;2023-11-22T13:30:25;6.40;;;1.63;;
69954;SDS011;57279;55.912;37.490;2023-11-22T13:32:54;7.03;;;1.95;;
69954;SDS011;57279;55.912;37.490;2023-11-22T13:35:27;8.50;;;2.45;;
69954;SDS011;57279;55.912;37.490;2023-11-22T13:40:27;6.35;;;2.58;;
69954;SDS011;57279;55.912;37.490;2023-11-22T13:42:57;9.65;;;2.17;;
69954;SDS011;57279;55.912;37.490;2023-11-22T13:45:23;8.10;;;2.13;;
69954;SDS011;57279;55.912;37.490;2023-11-22T13:47:50;9.45;;;2.60;;
69954;SDS011;57279;55.912;37.490;2023-11-22T13:50:20;5.10;;;1.35;;
69954;SDS011;57279;55.912;37.490;2023-11-22T13:52:51;8.85;;;2.60;;
69954;SDS011;57279;55.912;37.490;2023-11-22T13:55:18;6.90;;;2.28;;
69954;SDS011;57279;55.912;37.490;2023-11-22T13:57:53;7.95;;;2.35;;
69954;SDS011;57279;55.912;37.490;2023-11-22T14:00:22;7.13;;;1.60;;
69954;SDS011;57279;55.912;37.490;2023-11-22T14:02:52;9.32;;;2.70;;
69954;SDS011;57279;55.912;37.490;2023-11-22T14:05:25;5.50;;;1.38;;
69954;SDS011;57279;55.912;37.490;2023-11-22T14:07:54;8.13;;;2.67;;
69954;SDS011;57279;55.912;37.490;2023-11-22T14:10:20;7.28;;;2.17;;
69954;SDS011;57279;55.912;37.490;2023-11-22T14:12:50;8.70;;;2.67;;
69954;SDS011;57279;55.912;37.490;2023-11-22T14:15:17;7.60;;;2.13;;
69954;SDS011;57279;55.912;37.490;2023-11-22T14:17:44;9.80;;;2.70;;
69954;SDS011;57279;55.912;37.490;2023-11-22T14:20:15;9.65;;;2.78;;
69954;SDS011;57279;55.912;37.490;2023-11-22T14:25:10;10.65;;;3.20;;
69954;SDS011;57279;55.912;37.490;2023-11-22T14:27:38;10.98;;;3.08;;
69954;SDS011;57279;55.912;37.490;2023-11-22T14:30:04;8.98;;;2.15;;
69954;SDS011;57279;55.912;37.490;2023-11-22T14:32:36;9.77;;;3.10;;
69954;SDS011;57279;55.912;37.490;2023-11-22T14:35:02;10.70;;;3.30;;
69954;SDS011;57279;55.912;37.490;2023-11-22T14:37:33;10.68;;;3.03;;
69954;SDS011;57279;55.912;37.490;2023-11-22T14:40:05;11.23;;;3.50;;
69954;SDS011;57279;55.912;37.490;2023-11-22T14:42:39;4.35;;;1.13;;
69954;SDS011;57279;55.912;37.490;2023-11-22T14:45:06;10.98;;;3.03;;
69954;SDS011;57279;55.912;37.490;2023-11-22T14:50:06;10.23;;;3.15;;
69954;SDS011;57279;55.912;37.490;2023-11-22T14:52:33;12.38;;;3.67;;
69954;SDS011;57279;55.912;37.490;2023-11-22T14:55:00;9.68;;;3.05;;
69954;SDS011;57279;55.912;37.490;2023-11-22T14:57:26;10.27;;;3.20;;
69954;SDS011;57279;55.912;37.490;2023-11-22T14:59:52;10.00;;;3.00;;
69954;SDS011;57279;55.912;37.490;2023-11-22T15:02:18;12.93;;;4.18;;
69954;SDS011;57279;55.912;37.490;2023-11-22T15:04:44;11.05;;;3.90;;
69954;SDS011;57279;55.912;37.490;2023-11-22T15:07:11;10.95;;;2.80;;
69954;SDS011;57279;55.912;37.490;2023-11-22T15:09:37;11.00;;;3.50;;